Terminal Aerodrome Forecast
Issued by NWS

Home | Current Version | Previous Version | Graphics & Text | Print | Product List | Glossary On
Versions: 1 2 3 4 5 6 7 8 9 10 11 12 13 14 15 16 17 18 19 20 21 22 23 24 25 26 27 28 29 30
000
FTUS43 KTOP 231900 AAA
TAFFOE
TAF AMD
KFOE 231931Z 2320/2418 03008KT 1/2SM FU VV002
     FM232000 06009KT 6SM HZ BKN100
      TEMPO 2320/2322 1SM FU
     FM240300 08013KT 5SM SHRA BR BKN030
     FM240600 09014KT 5SM SHRA BR VCTS BKN010CB
     FM241500 09012KT 5SM BR OVC007=

USA.gov is the U.S. government's official web portal to all federal, state and local government web resources and services.